createdAt,value
2023-04-29T00:00:31.941Z,49.08
2023-04-29T00:01:30.928Z,54.54
2023-04-29T00:02:32.009Z,53.17
2023-04-29T00:03:32.127Z,56.61
2023-04-29T00:04:31.683Z,46.55
2023-04-29T00:05:30.961Z,59.64
2023-04-29T00:06:30.971Z,57.02
2023-04-29T00:07:30.895Z,57.76
2023-04-29T00:08:30.877Z,57.19
2023-04-29T00:09:30.871Z,52.14
2023-04-29T00:10:30.862Z,53.63
2023-04-29T00:11:30.834Z,57.56
2023-04-29T00:12:32.608Z,57.70
2023-04-29T00:13:30.823Z,54.80
2023-04-29T00:14:30.841Z,55.61
2023-04-29T00:15:30.815Z,58.61
2023-04-29T00:16:30.856Z,54.79
2023-04-29T00:17:30.830Z,57.29
2023-04-29T00:18:30.783Z,53.72
2023-04-29T00:19:30.782Z,47.01
2023-04-29T00:20:30.798Z,55.42
2023-04-29T00:23:31.448Z,50.04
2023-04-29T00:24:31.460Z,56.13
2023-04-29T00:25:31.502Z,47.98
2023-04-29T00:26:31.438Z,59.77
2023-04-29T00:27:32.182Z,57.11
2023-04-29T00:28:31.405Z,52.90
2023-04-29T00:29:39.783Z,48.68
2023-04-29T00:30:31.395Z,57.18
2023-04-29T00:31:31.502Z,51.44
2023-04-29T00:32:31.442Z,53.21
2023-04-29T00:33:31.503Z,57.39
2023-04-29T00:34:31.377Z,58.09
2023-04-29T00:35:31.412Z,51.73
2023-04-29T00:36:31.342Z,46.77
2023-04-29T00:37:31.339Z,52.75
2023-04-29T00:38:31.332Z,56.51
2023-04-29T00:39:31.322Z,58.45
2023-04-29T00:40:31.320Z,46.48
2023-04-29T00:41:31.315Z,55.29
2023-04-29T00:42:31.334Z,51.78
2023-04-29T00:43:31.305Z,62.38
2023-04-29T00:44:31.280Z,60.24
2023-04-29T00:45:32.480Z,53.06
2023-04-29T00:46:31.360Z,61.29
2023-04-29T00:47:31.291Z,59.77
2023-04-29T00:48:31.264Z,57.41
2023-04-29T00:49:31.245Z,55.31
2023-04-29T00:50:31.248Z,52.06
2023-04-29T00:51:31.230Z,51.26
2023-04-29T00:52:31.244Z,49.03
2023-04-29T00:53:31.216Z,44.53
2023-04-29T00:54:31.219Z,47.21
2023-04-29T00:55:31.212Z,57.11
2023-04-29T00:56:31.185Z,61.41
2023-04-29T00:57:31.174Z,59.23
2023-04-29T00:58:31.162Z,59.63
2023-04-29T00:59:31.178Z,63.15
2023-04-29T01:00:31.184Z,53.51
2023-04-29T01:01:31.269Z,52.08
2023-04-29T01:02:31.205Z,65.32
2023-04-29T01:03:31.291Z,59.88
2023-04-29T01:04:31.178Z,51.16
2023-04-29T01:05:32.209Z,55.34
2023-04-29T01:06:32.193Z,52.32
2023-04-29T01:07:32.203Z,48.42
2023-04-29T01:08:32.205Z,62.15
2023-04-29T01:09:32.189Z,57.55
2023-04-29T01:10:32.775Z,57.18
2023-04-29T01:11:32.157Z,63.79
2023-04-29T01:12:32.160Z,57.02
2023-04-29T01:13:32.148Z,54.87
2023-04-29T01:14:32.832Z,47.69
2023-04-29T01:15:32.147Z,55.57
2023-04-29T01:16:32.187Z,55.32
2023-04-29T01:17:32.208Z,40.84
2023-04-29T01:18:32.101Z,52.80
2023-04-29T01:19:32.104Z,55.49
2023-04-29T01:20:32.097Z,57.78
2023-04-29T01:21:32.098Z,55.01
2023-04-29T01:22:32.089Z,49.47
2023-04-29T01:23:35.734Z,54.54
2023-04-29T01:24:32.059Z,52.72
2023-04-29T01:25:32.055Z,58.85
2023-04-29T01:26:32.033Z,59.19
2023-04-29T01:27:34.743Z,48.09
2023-04-29T01:28:32.025Z,52.54
2023-04-29T01:29:32.005Z,51.00
2023-04-29T01:30:32.041Z,45.10
2023-04-29T01:31:32.100Z,41.39
2023-04-29T01:32:34.477Z,54.70
2023-04-29T01:33:33.005Z,59.23
2023-04-29T01:34:31.975Z,63.45
2023-04-29T01:35:32.043Z,54.39
2023-04-29T01:36:32.729Z,54.00
2023-04-29T01:37:31.953Z,50.84
2023-04-29T01:38:35.701Z,52.40
2023-04-29T01:39:31.930Z,60.97
2023-04-29T01:40:32.849Z,55.37
2023-04-29T01:41:32.057Z,56.14
2023-04-29T01:42:34.719Z,47.51
2023-04-29T01:43:31.921Z,44.91
2023-04-29T01:44:31.886Z,51.52
2023-04-29T01:45:31.877Z,60.41
2023-04-29T01:46:31.911Z,60.09
2023-04-29T01:47:31.955Z,53.48
2023-04-29T01:48:31.871Z,55.37
2023-04-29T01:49:31.860Z,55.75
2023-04-29T01:50:31.850Z,56.85
2023-04-29T01:51:33.834Z,49.10
2023-04-29T01:52:31.920Z,54.09
2023-04-29T01:53:31.848Z,57.24
2023-04-29T01:54:31.881Z,53.82
2023-04-29T01:55:31.807Z,54.49
2023-04-29T01:56:31.798Z,58.29
2023-04-29T01:57:31.783Z,50.65
2023-04-29T01:58:31.811Z,51.60
2023-04-29T01:59:31.897Z,50.52
2023-04-29T02:00:31.805Z,46.00
2023-04-29T02:01:31.780Z,49.51
2023-04-29T02:02:31.875Z,50.04
2023-04-29T02:03:31.957Z,48.38
2023-04-29T02:04:31.788Z,57.31
2023-04-29T02:05:31.728Z,58.95
2023-04-29T02:06:31.735Z,55.50
2023-04-29T02:07:31.706Z,57.18
2023-04-29T02:08:31.699Z,57.62
2023-04-29T02:09:31.700Z,58.80
2023-04-29T02:10:33.340Z,61.72
2023-04-29T02:11:31.716Z,49.47
2023-04-29T02:12:31.664Z,44.59
2023-04-29T02:13:31.673Z,46.36
2023-04-29T02:14:31.690Z,55.86
2023-04-29T02:15:31.662Z,49.23
2023-04-29T02:16:31.668Z,50.75
2023-04-29T02:17:31.663Z,57.64
2023-04-29T02:18:31.642Z,54.39
2023-04-29T02:19:31.647Z,56.27
2023-04-29T02:20:31.612Z,49.39
2023-04-29T02:21:31.605Z,47.72
2023-04-29T02:22:31.605Z,47.66
2023-04-29T02:23:31.589Z,58.96
2023-04-29T02:24:31.585Z,54.76
2023-04-29T02:25:31.594Z,46.59
2023-04-29T02:26:31.579Z,43.70
2023-04-29T02:27:31.563Z,53.22
2023-04-29T02:28:31.545Z,53.92
2023-04-29T02:29:31.543Z,52.22
2023-04-29T02:30:31.534Z,57.68
2023-04-29T02:31:31.628Z,55.86
2023-04-29T02:32:31.554Z,52.93
2023-04-29T02:33:31.522Z,44.15
2023-04-29T02:34:31.507Z,43.89
2023-04-29T02:35:31.495Z,45.84
2023-04-29T02:36:31.487Z,51.03
2023-04-29T02:37:31.484Z,52.09
2023-04-29T02:38:31.487Z,53.32
2023-04-29T02:39:31.501Z,59.05
2023-04-29T02:40:31.487Z,57.41
2023-04-29T02:41:31.445Z,47.92
2023-04-29T02:42:31.488Z,48.58
2023-04-29T02:43:31.457Z,54.81
2023-04-29T02:44:31.427Z,54.43
2023-04-29T02:45:31.421Z,57.23
2023-04-29T02:46:31.425Z,58.36
2023-04-29T02:47:31.506Z,51.70
2023-04-29T02:48:33.329Z,51.99
2023-04-29T02:49:31.392Z,54.81
2023-04-29T02:50:31.371Z,58.82
2023-04-29T02:51:31.382Z,58.81
2023-04-29T02:52:31.374Z,59.07
2023-04-29T02:53:31.362Z,52.14
2023-04-29T02:54:31.346Z,60.24
2023-04-29T02:55:31.333Z,57.49
2023-04-29T02:56:31.333Z,58.93
2023-04-29T02:57:32.315Z,60.96
2023-04-29T02:58:31.302Z,54.10
2023-04-29T02:59:31.314Z,48.93
2023-04-29T03:00:31.292Z,54.62
2023-04-29T03:01:31.337Z,55.85
2023-04-29T03:02:31.372Z,52.80
2023-04-29T03:03:31.354Z,49.50
2023-04-29T03:04:31.293Z,49.62
2023-04-29T03:05:31.400Z,53.26
2023-04-29T03:06:31.256Z,50.91
2023-04-29T03:07:31.245Z,50.38
2023-04-29T03:08:31.234Z,56.36
2023-04-29T03:09:31.275Z,52.90
2023-04-29T03:10:31.265Z,54.25
2023-04-29T03:11:31.207Z,52.16
2023-04-29T03:12:31.201Z,52.05
2023-04-29T03:13:31.187Z,54.90
2023-04-29T03:14:32.854Z,51.68
2023-04-29T03:15:31.201Z,51.80
2023-04-29T03:16:31.224Z,55.49
2023-04-29T03:17:31.202Z,58.24
2023-04-29T03:18:31.202Z,56.89
2023-04-29T03:19:31.145Z,57.05
2023-04-29T03:20:31.132Z,58.10
2023-04-29T03:21:31.142Z,53.93
2023-04-29T03:22:31.119Z,52.75
2023-04-29T03:23:31.101Z,60.73
2023-04-29T03:24:31.121Z,56.51
2023-04-29T03:25:31.106Z,54.39
2023-04-29T03:26:31.097Z,61.44
2023-04-29T03:27:31.072Z,58.98
2023-04-29T03:28:31.071Z,59.18
2023-04-29T03:29:31.061Z,58.50
2023-04-29T03:30:31.796Z,57.82
2023-04-29T03:31:31.063Z,54.23
2023-04-29T03:32:31.085Z,60.21
2023-04-29T03:33:31.028Z,61.72
2023-04-29T03:34:31.015Z,58.41
2023-04-29T03:35:31.020Z,60.43
2023-04-29T03:36:31.031Z,64.38
2023-04-29T03:37:31.009Z,60.44
2023-04-29T03:38:30.992Z,58.90
2023-04-29T03:39:30.979Z,55.21
2023-04-29T03:40:30.970Z,58.26
2023-04-29T03:41:30.957Z,59.02
2023-04-29T03:42:30.969Z,61.69
2023-04-29T03:43:30.949Z,61.51
2023-04-29T03:44:30.957Z,58.05
2023-04-29T03:45:32.852Z,60.85
2023-04-29T03:46:31.009Z,54.88
2023-04-29T03:47:30.955Z,61.96
2023-04-29T03:48:30.911Z,60.95
2023-04-29T03:49:30.894Z,55.90
2023-04-29T03:50:30.900Z,59.87
2023-04-29T03:51:30.924Z,61.19
2023-04-29T03:52:30.913Z,57.36
2023-04-29T03:53:30.883Z,52.70
2023-04-29T03:54:30.868Z,59.30
2023-04-29T03:55:30.865Z,53.02
2023-04-29T03:56:30.850Z,52.07
2023-04-29T03:57:30.827Z,55.27
2023-04-29T03:58:30.833Z,57.31
2023-04-29T03:59:30.838Z,58.79
2023-04-29T04:00:30.826Z,58.47
2023-04-29T04:01:30.802Z,58.77
2023-04-29T04:02:30.932Z,53.76
2023-04-29T04:03:30.871Z,57.46
2023-04-29T04:04:30.926Z,56.54
2023-04-29T04:05:30.778Z,60.05
2023-04-29T04:06:30.757Z,62.42
2023-04-29T04:07:30.758Z,66.34
2023-04-29T04:08:30.741Z,59.43
2023-04-29T04:09:30.734Z,58.98
2023-04-29T04:10:30.746Z,54.92
2023-04-29T04:11:30.709Z,60.36
2023-04-29T04:12:30.716Z,61.17
2023-04-29T04:13:30.709Z,62.39
2023-04-29T04:14:30.700Z,59.47
2023-04-29T04:15:30.695Z,57.16
2023-04-29T04:16:30.725Z,55.07
2023-04-29T04:17:30.670Z,59.16
2023-04-29T04:18:30.657Z,56.83
2023-04-29T04:19:31.662Z,57.44
2023-04-29T04:20:30.634Z,54.85
2023-04-29T04:21:30.676Z,57.67
2023-04-29T04:22:30.624Z,55.39
2023-04-29T04:23:30.625Z,59.34
2023-04-29T04:24:30.617Z,66.44
2023-04-29T04:25:30.619Z,58.28
2023-04-29T04:26:30.625Z,58.57
2023-04-29T04:27:30.581Z,56.10
2023-04-29T04:28:30.599Z,52.35
2023-04-29T04:29:30.655Z,62.37
2023-04-29T04:30:30.563Z,61.07
2023-04-29T04:31:30.603Z,63.01
2023-04-29T04:32:31.316Z,64.30
2023-04-29T04:33:30.573Z,62.39
2023-04-29T04:34:30.519Z,60.56
2023-04-29T04:35:30.557Z,63.16
2023-04-29T04:36:30.515Z,62.85
2023-04-29T04:37:30.519Z,63.22
2023-04-29T04:38:30.520Z,65.29
2023-04-29T04:39:30.502Z,59.39
2023-04-29T04:40:30.489Z,56.58
2023-04-29T04:41:30.509Z,60.85
2023-04-29T04:42:30.474Z,59.38
2023-04-29T04:43:30.459Z,58.33
2023-04-29T04:44:30.471Z,63.34
2023-04-29T04:45:30.475Z,62.25
2023-04-29T04:46:30.444Z,63.20
2023-04-29T04:47:30.461Z,65.16
2023-04-29T04:48:30.449Z,62.62
2023-04-29T04:49:30.445Z,60.30
2023-04-29T04:50:31.376Z,62.34
2023-04-29T04:51:30.421Z,58.28
2023-04-29T04:52:30.394Z,63.25
2023-04-29T04:53:30.371Z,61.35
2023-04-29T04:54:30.384Z,65.23
2023-04-29T04:55:31.379Z,63.64
2023-04-29T04:56:30.356Z,64.23
2023-04-29T04:57:30.392Z,59.67
2023-04-29T04:58:30.345Z,60.68
2023-04-29T04:59:30.331Z,57.74
2023-04-29T05:00:30.371Z,61.67
2023-04-29T05:01:30.380Z,59.08
2023-04-29T05:02:30.422Z,69.22
2023-04-29T05:03:30.561Z,68.71
2023-04-29T05:04:30.374Z,61.93
2023-04-29T05:05:30.279Z,65.15
2023-04-29T05:06:30.273Z,66.94
2023-04-29T05:07:30.286Z,64.06
2023-04-29T05:08:30.264Z,61.25
2023-04-29T05:09:30.271Z,58.99
2023-04-29T05:10:30.244Z,58.97
2023-04-29T05:11:30.246Z,57.21
2023-04-29T05:12:30.234Z,63.74
2023-04-29T05:13:30.219Z,59.81
2023-04-29T05:14:30.228Z,56.57
2023-04-29T05:15:30.212Z,64.35
2023-04-29T05:16:30.279Z,60.29
2023-04-29T05:17:30.238Z,62.55
2023-04-29T05:18:30.203Z,61.79
2023-04-29T05:19:30.181Z,61.35
2023-04-29T05:20:30.797Z,62.14
2023-04-29T05:21:30.176Z,59.81
2023-04-29T05:22:30.149Z,58.41
2023-04-29T05:23:30.179Z,56.59
2023-04-29T05:24:31.864Z,65.16
2023-04-29T05:25:31.139Z,60.94
2023-04-29T05:26:30.121Z,60.59
2023-04-29T05:27:30.109Z,65.45
2023-04-29T05:28:30.180Z,62.32
2023-04-29T05:29:30.119Z,63.91
2023-04-29T05:30:30.106Z,62.63
2023-04-29T05:31:30.134Z,61.94
2023-04-29T05:32:30.116Z,64.00
2023-04-29T05:33:30.117Z,62.26
2023-04-29T05:34:30.075Z,60.92
2023-04-29T05:35:30.799Z,60.21
2023-04-29T05:36:30.111Z,62.34
2023-04-29T05:37:30.060Z,62.60
2023-04-29T05:38:30.021Z,64.25
2023-04-29T05:39:30.020Z,61.08
2023-04-29T05:40:30.004Z,62.92
2023-04-29T05:41:30.017Z,62.29
2023-04-29T05:42:30.000Z,61.79
2023-04-29T05:43:29.976Z,63.31
2023-04-29T05:44:29.978Z,63.92
2023-04-29T05:45:29.965Z,64.14
2023-04-29T05:46:30.426Z,63.26
2023-04-29T05:47:30.120Z,62.81
2023-04-29T05:48:29.981Z,61.02
2023-04-29T05:49:31.944Z,59.07
2023-04-29T05:50:29.939Z,62.74
2023-04-29T05:51:30.005Z,61.83
2023-04-29T05:52:29.898Z,62.45
2023-04-29T05:53:30.913Z,60.84
2023-04-29T05:54:29.945Z,66.67
2023-04-29T05:55:29.893Z,62.03
2023-04-29T05:56:29.871Z,62.66
2023-04-29T05:57:29.859Z,63.41
2023-04-29T05:58:31.401Z,62.86
2023-04-29T05:59:29.846Z,65.33
2023-04-29T06:00:29.860Z,65.23
2023-04-29T06:01:29.832Z,60.14
2023-04-29T06:02:29.912Z,65.14
2023-04-29T06:03:32.662Z,60.64
2023-04-29T06:04:31.999Z,62.18
2023-04-29T06:05:31.774Z,56.75
2023-04-29T06:06:30.988Z,64.19
2023-04-29T06:07:29.844Z,62.97
2023-04-29T06:08:29.823Z,62.00
2023-04-29T06:09:29.812Z,65.55
2023-04-29T06:10:29.798Z,62.22
2023-04-29T06:11:29.763Z,64.01
2023-04-29T06:12:29.760Z,62.68
2023-04-29T06:13:29.729Z,64.76
2023-04-29T06:14:29.735Z,61.93
2023-04-29T06:15:29.723Z,64.02
2023-04-29T06:16:36.362Z,62.71
2023-04-29T06:17:29.777Z,67.11
2023-04-29T06:18:29.699Z,61.74
2023-04-29T06:19:30.434Z,60.22
2023-04-29T06:20:29.685Z,63.25
2023-04-29T06:21:29.680Z,64.91
2023-04-29T06:22:29.675Z,61.01
2023-04-29T06:23:29.666Z,63.93
2023-04-29T06:24:29.641Z,66.18
2023-04-29T06:25:29.648Z,66.86
2023-04-29T06:26:29.628Z,67.04
2023-04-29T06:27:29.612Z,64.90
2023-04-29T06:28:29.611Z,62.10
2023-04-29T06:29:29.604Z,60.06
2023-04-29T06:30:29.593Z,66.22
2023-04-29T06:31:29.638Z,62.53
2023-04-29T06:32:29.636Z,66.34
2023-04-29T06:33:29.601Z,64.41
2023-04-29T06:34:29.558Z,59.79
2023-04-29T06:35:29.563Z,61.76
2023-04-29T06:36:29.545Z,64.59
2023-04-29T06:37:29.562Z,63.09
2023-04-29T06:38:29.526Z,63.91
2023-04-29T06:39:29.523Z,62.53
2023-04-29T06:40:29.542Z,60.44
2023-04-29T06:41:29.515Z,63.41
2023-04-29T06:42:29.498Z,62.22
2023-04-29T06:43:29.506Z,65.40
2023-04-29T06:44:29.491Z,61.41
2023-04-29T06:45:29.486Z,62.54
2023-04-29T06:46:29.538Z,61.90
2023-04-29T06:47:29.484Z,63.36
2023-04-29T06:48:29.438Z,64.01
2023-04-29T06:49:29.441Z,62.65
2023-04-29T06:50:29.431Z,66.33
2023-04-29T06:51:29.424Z,65.89
2023-04-29T06:52:29.416Z,65.96
2023-04-29T06:53:29.402Z,61.40
2023-04-29T06:54:29.413Z,61.72
2023-04-29T06:55:29.411Z,63.85
2023-04-29T06:56:29.964Z,64.88
2023-04-29T06:57:29.368Z,65.23
2023-04-29T06:58:30.361Z,61.77
2023-04-29T06:59:29.377Z,64.15
2023-04-29T07:00:29.356Z,64.59
2023-04-29T07:01:29.394Z,59.92
2023-04-29T07:02:29.473Z,65.65
2023-04-29T07:03:29.608Z,63.64
2023-04-29T07:04:29.429Z,63.73
2023-04-29T07:05:29.321Z,61.47
2023-04-29T07:06:29.301Z,61.37
2023-04-29T07:07:29.294Z,65.43
2023-04-29T07:08:29.294Z,64.22
2023-04-29T07:09:29.285Z,63.89
2023-04-29T07:10:29.308Z,65.23
2023-04-29T07:11:30.884Z,61.27
2023-04-29T07:12:29.249Z,59.65
2023-04-29T07:13:29.238Z,61.93
2023-04-29T07:14:29.270Z,62.92
2023-04-29T07:15:29.241Z,63.71
2023-04-29T07:16:29.270Z,61.14
2023-04-29T07:17:29.270Z,62.84
2023-04-29T07:18:29.206Z,62.39
2023-04-29T07:19:29.452Z,63.13
2023-04-29T07:20:29.201Z,67.05
2023-04-29T07:21:29.179Z,63.42
2023-04-29T07:22:29.184Z,64.91
2023-04-29T07:23:29.165Z,65.31
2023-04-29T07:24:29.153Z,65.72
2023-04-29T07:25:29.177Z,62.94
2023-04-29T07:26:29.152Z,63.57
2023-04-29T07:27:29.157Z,65.42
2023-04-29T07:28:29.116Z,61.34
2023-04-29T07:29:29.115Z,63.09
2023-04-29T07:30:29.113Z,64.69
2023-04-29T07:31:29.167Z,63.86
2023-04-29T07:32:29.121Z,65.68
2023-04-29T07:33:29.089Z,64.83
2023-04-29T07:34:29.086Z,63.93
2023-04-29T07:35:29.064Z,62.21
2023-04-29T07:36:29.073Z,63.67
2023-04-29T07:37:29.039Z,63.51
2023-04-29T07:38:29.038Z,64.66
2023-04-29T07:39:29.028Z,64.79
2023-04-29T07:40:29.016Z,64.17
2023-04-29T07:41:29.015Z,63.87
2023-04-29T07:42:29.003Z,65.44
2023-04-29T07:43:29.033Z,63.57
2023-04-29T07:44:28.980Z,62.59
2023-04-29T07:45:29.014Z,66.21
2023-04-29T07:46:28.995Z,64.85
2023-04-29T07:47:28.983Z,62.91
2023-04-29T07:48:29.060Z,63.36
2023-04-29T07:49:29.956Z,62.76
2023-04-29T07:50:29.376Z,62.84
2023-04-29T07:51:29.124Z,65.56
2023-04-29T07:52:29.017Z,62.39
2023-04-29T07:53:28.998Z,63.23
2023-04-29T07:54:28.983Z,65.64
2023-04-29T07:55:28.906Z,65.36
2023-04-29T07:56:28.895Z,66.66
2023-04-29T07:57:28.883Z,62.91
2023-04-29T07:58:28.864Z,63.95
2023-04-29T07:59:28.897Z,64.71
2023-04-29T08:00:28.861Z,67.19
2023-04-29T08:01:28.861Z,66.67
2023-04-29T08:02:28.992Z,65.11
2023-04-29T08:03:28.936Z,65.19
2023-04-29T08:04:29.020Z,61.83
2023-04-29T08:05:29.085Z,64.07
2023-04-29T08:06:29.836Z,65.34
2023-04-29T08:07:28.802Z,65.02
2023-04-29T08:08:28.786Z,65.75
2023-04-29T08:09:28.786Z,65.60
2023-04-29T08:10:28.771Z,63.04
2023-04-29T08:11:28.762Z,62.98
2023-04-29T08:12:28.753Z,63.63
2023-04-29T08:13:28.760Z,62.64
2023-04-29T08:14:28.743Z,62.36
2023-04-29T08:15:28.744Z,63.89
2023-04-29T08:16:28.763Z,65.51
2023-04-29T08:17:28.728Z,64.17
2023-04-29T08:18:28.705Z,64.49
2023-04-29T08:19:28.690Z,64.17
2023-04-29T08:20:28.702Z,65.42
2023-04-29T08:21:28.678Z,64.65
2023-04-29T08:22:28.680Z,63.28
2023-04-29T08:23:28.679Z,65.67
2023-04-29T08:24:28.655Z,67.67
2023-04-29T08:25:28.657Z,65.11
2023-04-29T08:26:28.654Z,66.03
2023-04-29T08:27:28.776Z,67.22
2023-04-29T08:28:28.625Z,65.59
2023-04-29T08:29:28.684Z,65.38
2023-04-29T08:30:28.622Z,67.26
2023-04-29T08:31:28.665Z,64.80
2023-04-29T08:32:28.642Z,65.22
2023-04-29T08:33:28.575Z,66.87
2023-04-29T08:34:28.571Z,65.40
2023-04-29T08:35:28.581Z,64.92
2023-04-29T08:36:28.558Z,64.98
2023-04-29T08:37:28.542Z,63.70
2023-04-29T08:38:28.540Z,65.64
2023-04-29T08:39:28.544Z,65.23
2023-04-29T08:40:28.534Z,67.18
2023-04-29T08:41:28.509Z,66.76
2023-04-29T08:42:28.508Z,65.72
2023-04-29T08:43:28.497Z,64.88
2023-04-29T08:44:28.513Z,65.88
2023-04-29T08:45:28.551Z,65.02
2023-04-29T08:46:28.583Z,64.73
2023-04-29T08:47:28.558Z,66.20
2023-04-29T08:48:28.520Z,65.76
2023-04-29T08:49:28.458Z,64.58
2023-04-29T08:50:28.437Z,65.70
2023-04-29T08:51:28.440Z,65.84
2023-04-29T08:52:28.423Z,64.93
2023-04-29T08:53:28.413Z,65.81
2023-04-29T08:54:28.750Z,67.53
2023-04-29T08:55:28.417Z,64.05
2023-04-29T08:56:28.409Z,65.99
2023-04-29T08:57:28.403Z,66.52
2023-04-29T08:58:28.373Z,63.47
2023-04-29T08:59:28.356Z,64.86
2023-04-29T09:00:30.012Z,65.97
2023-04-29T09:01:28.410Z,67.60
2023-04-29T09:02:28.441Z,66.47
2023-04-29T09:03:28.376Z,65.48
2023-04-29T09:04:28.356Z,64.71
2023-04-29T09:05:28.315Z,66.57
2023-04-29T09:06:28.308Z,69.12
2023-04-29T09:07:28.313Z,64.80
2023-04-29T09:08:28.328Z,66.44
2023-04-29T09:09:29.284Z,64.62
2023-04-29T09:10:28.965Z,66.04
2023-04-29T09:11:28.271Z,67.94
2023-04-29T09:12:28.268Z,65.92
2023-04-29T09:13:28.254Z,66.04
2023-04-29T09:14:28.246Z,65.78
2023-04-29T09:15:28.238Z,64.08
2023-04-29T09:16:28.292Z,65.03
2023-04-29T09:17:28.259Z,64.50
2023-04-29T09:18:28.205Z,63.94
2023-04-29T09:19:28.224Z,65.65
2023-04-29T09:20:28.196Z,67.34
2023-04-29T09:21:28.197Z,66.59
2023-04-29T09:22:28.217Z,64.42
2023-04-29T09:23:28.170Z,65.22
2023-04-29T09:24:28.173Z,65.11
2023-04-29T09:25:28.172Z,63.85
2023-04-29T09:26:28.150Z,67.20
2023-04-29T09:27:28.142Z,65.61
2023-04-29T09:28:28.129Z,66.31
2023-04-29T09:29:28.949Z,67.09
2023-04-29T09:30:28.129Z,64.98
2023-04-29T09:31:28.184Z,66.52
2023-04-29T09:32:28.157Z,64.93
2023-04-29T09:33:28.093Z,64.49
2023-04-29T09:34:28.095Z,65.30
2023-04-29T09:35:28.111Z,63.56
2023-04-29T09:36:28.077Z,62.74
2023-04-29T09:37:28.151Z,62.37
2023-04-29T09:38:28.046Z,66.23
2023-04-29T09:39:28.893Z,64.74
2023-04-29T09:40:28.034Z,65.36
2023-04-29T09:41:28.031Z,64.90
2023-04-29T09:42:28.029Z,64.09
2023-04-29T09:43:28.013Z,66.14
2023-04-29T09:44:32.967Z,63.70
2023-04-29T09:45:27.994Z,65.57
2023-04-29T09:46:28.016Z,65.41
2023-04-29T09:47:29.523Z,65.02
2023-04-29T09:48:29.029Z,63.47
2023-04-29T09:49:27.989Z,65.39
2023-04-29T09:50:29.514Z,65.57
2023-04-29T09:51:27.964Z,65.31
2023-04-29T09:52:29.591Z,65.30
2023-04-29T09:53:27.939Z,65.56
2023-04-29T09:54:27.920Z,63.54
2023-04-29T09:55:27.920Z,66.38
2023-04-29T09:56:27.903Z,65.23
2023-04-29T09:57:27.895Z,64.64
2023-04-29T09:58:27.896Z,65.52
2023-04-29T09:59:27.894Z,64.85
2023-04-29T10:00:29.500Z,65.15
2023-04-29T10:01:27.911Z,66.29
2023-04-29T10:02:27.988Z,66.12
2023-04-29T10:03:27.925Z,63.99
2023-04-29T10:04:27.894Z,65.23
2023-04-29T10:05:27.836Z,63.96
2023-04-29T10:06:27.822Z,64.92
2023-04-29T10:07:27.827Z,64.04
2023-04-29T10:08:27.810Z,65.79
2023-04-29T10:09:27.810Z,64.61
2023-04-29T10:10:29.548Z,63.39
2023-04-29T10:11:27.787Z,64.90
2023-04-29T10:12:27.797Z,63.86
2023-04-29T10:13:29.407Z,64.51
2023-04-29T10:14:28.763Z,63.83
2023-04-29T10:15:28.458Z,64.02
2023-04-29T10:16:27.791Z,64.54
2023-04-29T10:17:27.731Z,63.23
2023-04-29T10:18:27.769Z,63.25
2023-04-29T10:19:27.753Z,66.05
2023-04-29T10:20:27.718Z,65.87
2023-04-29T10:21:27.753Z,64.23
2023-04-29T10:22:28.511Z,63.71
2023-04-29T10:23:27.697Z,66.03
2023-04-29T10:24:27.681Z,66.07
2023-04-29T10:25:27.677Z,65.30
2023-04-29T10:26:27.670Z,66.71
2023-04-29T10:27:27.656Z,64.11
2023-04-29T10:28:27.645Z,62.89
2023-04-29T10:29:27.661Z,65.74
2023-04-29T10:30:27.648Z,68.61
2023-04-29T10:31:27.690Z,65.31
2023-04-29T10:32:28.845Z,64.47
2023-04-29T10:33:28.629Z,66.65
2023-04-29T10:34:27.610Z,63.93
2023-04-29T10:35:27.594Z,64.64
2023-04-29T10:36:27.598Z,67.06
2023-04-29T10:37:27.596Z,63.85
2023-04-29T10:38:27.583Z,66.04
2023-04-29T10:39:27.551Z,63.71
2023-04-29T10:40:28.531Z,62.09
2023-04-29T10:41:27.568Z,65.95
2023-04-29T10:42:28.107Z,64.20
2023-04-29T10:43:27.537Z,61.55
2023-04-29T10:44:27.517Z,65.08
2023-04-29T10:45:27.591Z,63.92
2023-04-29T10:46:27.579Z,63.17
2023-04-29T10:47:27.529Z,64.32
2023-04-29T10:48:27.502Z,64.29
2023-04-29T10:49:27.512Z,65.30
2023-04-29T10:50:27.478Z,66.15
2023-04-29T10:51:27.480Z,66.13
2023-04-29T10:52:27.457Z,63.47
2023-04-29T10:53:27.448Z,65.94
2023-04-29T10:54:27.451Z,66.34
2023-04-29T10:55:27.437Z,63.84
2023-04-29T10:56:27.436Z,63.94
2023-04-29T10:57:27.421Z,65.74
2023-04-29T10:58:27.441Z,64.56
2023-04-29T10:59:27.418Z,62.75
2023-04-29T11:00:28.036Z,65.38
2023-04-29T11:01:27.418Z,66.03
2023-04-29T11:02:27.614Z,64.33
2023-04-29T11:03:27.513Z,67.51
2023-04-29T11:04:27.425Z,66.52
2023-04-29T11:05:27.861Z,65.95
2023-04-29T11:06:28.351Z,64.57
2023-04-29T11:07:27.341Z,65.88
2023-04-29T11:08:27.610Z,65.09
2023-04-29T11:09:27.352Z,67.32
2023-04-29T11:10:27.324Z,63.99
2023-04-29T11:11:28.385Z,65.50
2023-04-29T11:12:28.329Z,63.74
2023-04-29T11:13:27.318Z,64.79
2023-04-29T11:14:29.052Z,64.91
2023-04-29T11:15:27.287Z,65.68
2023-04-29T11:16:27.347Z,62.17
2023-04-29T11:17:28.507Z,65.78
2023-04-29T11:18:28.250Z,68.40
2023-04-29T11:19:27.250Z,64.76
2023-04-29T11:20:27.245Z,65.00
2023-04-29T11:21:27.236Z,63.97
2023-04-29T11:22:27.288Z,64.74
2023-04-29T11:23:28.506Z,68.38
2023-04-29T11:24:28.224Z,65.68
2023-04-29T11:25:27.218Z,66.61
2023-04-29T11:26:27.198Z,65.96
2023-04-29T11:27:27.439Z,65.73
2023-04-29T11:28:27.178Z,63.33
2023-04-29T11:29:27.970Z,64.09
2023-04-29T11:30:27.165Z,64.41
2023-04-29T11:31:28.782Z,63.19
2023-04-29T11:32:27.247Z,64.36
2023-04-29T11:33:27.200Z,65.77
2023-04-29T11:34:27.168Z,63.95
2023-04-29T11:35:27.121Z,64.75
2023-04-29T11:36:27.125Z,64.22
2023-04-29T11:37:27.140Z,65.91
2023-04-29T11:38:27.106Z,66.38
2023-04-29T11:39:27.100Z,64.58
2023-04-29T11:40:27.079Z,64.73
2023-04-29T11:41:27.452Z,64.52
2023-04-29T11:42:27.079Z,65.41
2023-04-29T11:43:27.079Z,63.76
2023-04-29T11:44:27.056Z,64.81
2023-04-29T11:45:27.057Z,65.19
2023-04-29T11:46:27.055Z,63.30
2023-04-29T11:47:28.126Z,66.89
2023-04-29T11:48:27.014Z,64.11
2023-04-29T11:49:27.001Z,65.56
2023-04-29T11:50:27.053Z,67.25
2023-04-29T11:51:27.002Z,67.20
2023-04-29T11:52:26.971Z,66.24
2023-04-29T11:53:28.053Z,66.07
2023-04-29T11:54:26.978Z,65.49
2023-04-29T11:55:26.956Z,66.48
2023-04-29T11:56:26.970Z,67.01
2023-04-29T11:57:27.426Z,67.93
2023-04-29T11:58:26.942Z,64.24
2023-04-29T11:59:26.926Z,64.75
2023-04-29T12:00:26.925Z,66.72
2023-04-29T12:01:27.066Z,66.48
2023-04-29T12:02:26.977Z,65.88
2023-04-29T12:03:27.124Z,65.22
2023-04-29T12:04:27.186Z,63.25
2023-04-29T12:05:26.990Z,64.32
2023-04-29T12:06:26.936Z,64.50
2023-04-29T12:07:26.853Z,67.41
2023-04-29T12:08:27.554Z,66.10
2023-04-29T12:09:26.873Z,66.01
2023-04-29T12:10:26.836Z,64.01
2023-04-29T12:11:26.857Z,66.06
2023-04-29T12:12:26.816Z,65.55
2023-04-29T12:13:27.458Z,65.84
2023-04-29T12:14:26.829Z,65.81
2023-04-29T12:15:26.809Z,63.75
2023-04-29T12:16:27.021Z,66.70
2023-04-29T12:17:26.796Z,66.85
2023-04-29T12:18:26.770Z,65.64
2023-04-29T12:19:26.772Z,63.55
2023-04-29T12:20:26.771Z,63.83
2023-04-29T12:21:26.753Z,73.30
2023-04-29T12:22:27.538Z,66.70
2023-04-29T12:23:26.756Z,65.90
2023-04-29T12:24:26.733Z,65.15
2023-04-29T12:25:26.722Z,66.91
2023-04-29T12:26:26.713Z,64.89
2023-04-29T12:27:26.694Z,66.02
2023-04-29T12:28:26.697Z,63.18
2023-04-29T12:29:26.692Z,62.80
2023-04-29T12:30:26.678Z,64.59
2023-04-29T12:31:26.686Z,63.43
2023-04-29T12:32:26.701Z,64.22
2023-04-29T12:33:27.545Z,63.68
2023-04-29T12:34:27.122Z,64.27
2023-04-29T12:35:26.651Z,64.09
2023-04-29T12:36:26.617Z,64.05
2023-04-29T12:37:26.625Z,63.58
2023-04-29T12:38:28.564Z,65.72
2023-04-29T12:39:26.601Z,62.23
2023-04-29T12:40:27.865Z,64.32
2023-04-29T12:41:27.665Z,65.06
2023-04-29T12:42:26.580Z,65.03
2023-04-29T12:43:26.603Z,63.85
2023-04-29T12:44:26.598Z,63.45
2023-04-29T12:45:26.560Z,64.73
2023-04-29T12:46:30.526Z,64.39
2023-04-29T12:47:26.553Z,63.45
2023-04-29T12:48:30.110Z,64.04
2023-04-29T12:49:28.533Z,64.06
2023-04-29T12:50:26.535Z,63.24
2023-04-29T12:51:26.513Z,65.18
2023-04-29T12:52:26.519Z,62.90
2023-04-29T12:53:26.489Z,64.36
2023-04-29T12:56:33.112Z,66.55